sensor_id;sensor_type;location;lat;lon;timestamp;P1;durP1;ratioP1;P2;durP2;ratioP2
14381;SDS011;7275;50.328;8.720;2023-07-24T00:02:00;2.97;;;1.70;;
14381;SDS011;7275;50.328;8.720;2023-07-24T00:04:31;1.97;;;1.70;;
14381;SDS011;7275;50.328;8.720;2023-07-24T00:06:59;1.80;;;1.70;;
14381;SDS011;7275;50.328;8.720;2023-07-24T00:09:27;2.73;;;2.00;;
14381;SDS011;7275;50.328;8.720;2023-07-24T00:11:54;2.73;;;1.80;;
14381;SDS011;7275;50.328;8.720;2023-07-24T00:14:21;1.77;;;1.60;;
14381;SDS011;7275;50.328;8.720;2023-07-24T00:16:49;3.83;;;2.07;;
14381;SDS011;7275;50.328;8.720;2023-07-24T00:19:17;2.67;;;1.90;;
14381;SDS011;7275;50.328;8.720;2023-07-24T00:21:46;4.10;;;1.87;;
14381;SDS011;7275;50.328;8.720;2023-07-24T00:24:13;4.50;;;1.83;;
14381;SDS011;7275;50.328;8.720;2023-07-24T00:26:41;3.07;;;1.80;;
14381;SDS011;7275;50.328;8.720;2023-07-24T00:29:09;2.63;;;1.70;;
14381;SDS011;7275;50.328;8.720;2023-07-24T00:31:36;3.30;;;2.00;;
14381;SDS011;7275;50.328;8.720;2023-07-24T00:34:04;3.30;;;1.73;;
14381;SDS011;7275;50.328;8.720;2023-07-24T00:36:32;2.60;;;1.67;;
14381;SDS011;7275;50.328;8.720;2023-07-24T00:39:01;2.40;;;1.80;;
14381;SDS011;7275;50.328;8.720;2023-07-24T00:41:28;2.83;;;1.83;;
14381;SDS011;7275;50.328;8.720;2023-07-24T00:43:56;2.70;;;1.80;;
14381;SDS011;7275;50.328;8.720;2023-07-24T00:46:23;2.07;;;1.80;;
14381;SDS011;7275;50.328;8.720;2023-07-24T00:48:51;4.37;;;2.17;;
14381;SDS011;7275;50.328;8.720;2023-07-24T00:51:20;4.80;;;2.07;;
14381;SDS011;7275;50.328;8.720;2023-07-24T00:53:47;3.93;;;2.10;;
14381;SDS011;7275;50.328;8.720;2023-07-24T00:56:16;4.53;;;2.50;;
14381;SDS011;7275;50.328;8.720;2023-07-24T00:58:44;3.30;;;2.10;;
14381;SDS011;7275;50.328;8.720;2023-07-24T01:01:11;2.47;;;2.07;;
14381;SDS011;7275;50.328;8.720;2023-07-24T01:03:39;5.47;;;1.90;;
14381;SDS011;7275;50.328;8.720;2023-07-24T01:06:07;2.57;;;1.97;;
14381;SDS011;7275;50.328;8.720;2023-07-24T01:08:34;5.17;;;2.07;;
14381;SDS011;7275;50.328;8.720;2023-07-24T01:11:03;2.43;;;2.20;;
14381;SDS011;7275;50.328;8.720;2023-07-24T01:13:40;2.30;;;2.10;;
14381;SDS011;7275;50.328;8.720;2023-07-24T01:16:13;3.73;;;2.20;;
14381;SDS011;7275;50.328;8.720;2023-07-24T01:18:44;4.93;;;2.10;;
14381;SDS011;7275;50.328;8.720;2023-07-24T01:21:12;2.97;;;2.20;;
14381;SDS011;7275;50.328;8.720;2023-07-24T01:23:45;3.27;;;1.90;;
14381;SDS011;7275;50.328;8.720;2023-07-24T01:26:23;4.13;;;2.20;;
14381;SDS011;7275;50.328;8.720;2023-07-24T01:28:52;3.37;;;1.90;;
14381;SDS011;7275;50.328;8.720;2023-07-24T01:31:20;3.90;;;2.10;;
14381;SDS011;7275;50.328;8.720;2023-07-24T01:33:48;5.03;;;2.20;;
14381;SDS011;7275;50.328;8.720;2023-07-24T01:36:15;2.63;;;1.90;;
14381;SDS011;7275;50.328;8.720;2023-07-24T01:38:45;3.03;;;1.93;;
14381;SDS011;7275;50.328;8.720;2023-07-24T01:41:15;3.10;;;1.80;;
14381;SDS011;7275;50.328;8.720;2023-07-24T01:43:44;2.97;;;2.10;;
14381;SDS011;7275;50.328;8.720;2023-07-24T01:46:12;2.80;;;2.20;;
14381;SDS011;7275;50.328;8.720;2023-07-24T01:48:39;2.57;;;2.07;;
14381;SDS011;7275;50.328;8.720;2023-07-24T01:51:07;3.60;;;2.00;;
14381;SDS011;7275;50.328;8.720;2023-07-24T01:53:35;2.93;;;1.90;;
14381;SDS011;7275;50.328;8.720;2023-07-24T01:56:02;3.03;;;1.83;;
14381;SDS011;7275;50.328;8.720;2023-07-24T01:58:30;3.20;;;2.17;;
14381;SDS011;7275;50.328;8.720;2023-07-24T02:00:59;4.17;;;1.93;;
14381;SDS011;7275;50.328;8.720;2023-07-24T02:03:26;2.77;;;1.90;;
14381;SDS011;7275;50.328;8.720;2023-07-24T02:05:54;2.40;;;2.10;;
14381;SDS011;7275;50.328;8.720;2023-07-24T02:08:22;3.07;;;2.20;;
14381;SDS011;7275;50.328;8.720;2023-07-24T02:10:49;3.40;;;1.90;;
14381;SDS011;7275;50.328;8.720;2023-07-24T02:13:17;3.93;;;2.00;;
14381;SDS011;7275;50.328;8.720;2023-07-24T02:15:45;4.23;;;1.90;;
14381;SDS011;7275;50.328;8.720;2023-07-24T02:18:13;3.47;;;2.17;;
14381;SDS011;7275;50.328;8.720;2023-07-24T02:20:41;2.83;;;2.13;;
14381;SDS011;7275;50.328;8.720;2023-07-24T02:23:15;3.87;;;2.10;;
14381;SDS011;7275;50.328;8.720;2023-07-24T02:25:42;3.83;;;2.20;;
14381;SDS011;7275;50.328;8.720;2023-07-24T02:28:10;6.40;;;2.23;;
14381;SDS011;7275;50.328;8.720;2023-07-24T02:30:38;5.33;;;1.97;;
14381;SDS011;7275;50.328;8.720;2023-07-24T02:33:06;3.60;;;2.30;;
14381;SDS011;7275;50.328;8.720;2023-07-24T02:35:39;5.00;;;2.20;;
14381;SDS011;7275;50.328;8.720;2023-07-24T02:38:07;3.00;;;2.10;;
14381;SDS011;7275;50.328;8.720;2023-07-24T02:40:35;2.93;;;1.90;;
14381;SDS011;7275;50.328;8.720;2023-07-24T02:43:03;2.27;;;1.97;;
14381;SDS011;7275;50.328;8.720;2023-07-24T02:45:33;2.20;;;1.87;;
14381;SDS011;7275;50.328;8.720;2023-07-24T02:48:01;2.73;;;2.03;;
14381;SDS011;7275;50.328;8.720;2023-07-24T02:50:29;3.87;;;2.20;;
14381;SDS011;7275;50.328;8.720;2023-07-24T02:52:57;2.73;;;2.13;;
14381;SDS011;7275;50.328;8.720;2023-07-24T02:55:25;3.27;;;1.83;;
14381;SDS011;7275;50.328;8.720;2023-07-24T02:57:53;3.43;;;1.93;;
14381;SDS011;7275;50.328;8.720;2023-07-24T03:00:20;3.57;;;2.20;;
14381;SDS011;7275;50.328;8.720;2023-07-24T03:02:48;2.20;;;1.70;;
14381;SDS011;7275;50.328;8.720;2023-07-24T03:05:15;2.80;;;2.10;;
14381;SDS011;7275;50.328;8.720;2023-07-24T03:07:43;3.63;;;2.13;;
14381;SDS011;7275;50.328;8.720;2023-07-24T03:10:12;2.50;;;1.80;;
14381;SDS011;7275;50.328;8.720;2023-07-24T03:12:39;3.63;;;1.90;;
14381;SDS011;7275;50.328;8.720;2023-07-24T03:15:07;3.00;;;2.03;;
14381;SDS011;7275;50.328;8.720;2023-07-24T03:17:35;1.70;;;1.60;;
14381;SDS011;7275;50.328;8.720;2023-07-24T03:20:09;2.33;;;1.97;;
14381;SDS011;7275;50.328;8.720;2023-07-24T03:22:37;2.33;;;1.90;;
14381;SDS011;7275;50.328;8.720;2023-07-24T03:25:05;2.27;;;2.00;;
14381;SDS011;7275;50.328;8.720;2023-07-24T03:27:34;4.67;;;2.23;;
14381;SDS011;7275;50.328;8.720;2023-07-24T03:30:01;3.30;;;2.47;;
14381;SDS011;7275;50.328;8.720;2023-07-24T03:32:29;5.37;;;2.47;;
14381;SDS011;7275;50.328;8.720;2023-07-24T03:34:57;6.50;;;2.60;;
14381;SDS011;7275;50.328;8.720;2023-07-24T03:37:24;4.70;;;2.27;;
14381;SDS011;7275;50.328;8.720;2023-07-24T03:39:52;3.37;;;2.40;;
14381;SDS011;7275;50.328;8.720;2023-07-24T03:42:26;4.70;;;2.40;;
14381;SDS011;7275;50.328;8.720;2023-07-24T03:44:56;2.97;;;2.20;;
14381;SDS011;7275;50.328;8.720;2023-07-24T03:47:24;2.83;;;1.77;;
14381;SDS011;7275;50.328;8.720;2023-07-24T03:49:52;2.67;;;2.07;;
14381;SDS011;7275;50.328;8.720;2023-07-24T03:52:19;3.20;;;2.03;;
14381;SDS011;7275;50.328;8.720;2023-07-24T03:54:47;3.73;;;2.20;;
14381;SDS011;7275;50.328;8.720;2023-07-24T03:57:15;2.60;;;1.90;;
14381;SDS011;7275;50.328;8.720;2023-07-24T03:59:42;3.37;;;2.03;;
14381;SDS011;7275;50.328;8.720;2023-07-24T04:02:11;3.47;;;2.43;;
14381;SDS011;7275;50.328;8.720;2023-07-24T04:04:39;4.03;;;2.33;;
14381;SDS011;7275;50.328;8.720;2023-07-24T04:07:06;4.93;;;2.83;;
14381;SDS011;7275;50.328;8.720;2023-07-24T04:09:34;5.67;;;3.10;;
14381;SDS011;7275;50.328;8.720;2023-07-24T04:12:01;6.90;;;2.90;;
14381;SDS011;7275;50.328;8.720;2023-07-24T04:14:29;3.53;;;2.83;;
14381;SDS011;7275;50.328;8.720;2023-07-24T04:16:57;4.47;;;2.60;;
14381;SDS011;7275;50.328;8.720;2023-07-24T04:19:25;4.00;;;2.30;;
14381;SDS011;7275;50.328;8.720;2023-07-24T04:21:53;4.20;;;2.30;;
14381;SDS011;7275;50.328;8.720;2023-07-24T04:24:20;2.80;;;2.40;;
14381;SDS011;7275;50.328;8.720;2023-07-24T04:26:48;4.33;;;2.57;;
14381;SDS011;7275;50.328;8.720;2023-07-24T04:29:15;4.77;;;2.50;;
14381;SDS011;7275;50.328;8.720;2023-07-24T04:31:43;4.90;;;2.60;;
14381;SDS011;7275;50.328;8.720;2023-07-24T04:34:10;4.47;;;2.60;;
14381;SDS011;7275;50.328;8.720;2023-07-24T04:36:39;5.30;;;2.57;;
14381;SDS011;7275;50.328;8.720;2023-07-24T04:39:07;3.60;;;2.60;;
14381;SDS011;7275;50.328;8.720;2023-07-24T04:41:34;2.80;;;1.97;;
14381;SDS011;7275;50.328;8.720;2023-07-24T04:44:02;3.53;;;2.60;;
14381;SDS011;7275;50.328;8.720;2023-07-24T04:46:29;4.17;;;2.43;;
14381;SDS011;7275;50.328;8.720;2023-07-24T04:48:58;3.10;;;2.67;;
14381;SDS011;7275;50.328;8.720;2023-07-24T04:51:25;3.07;;;2.50;;
14381;SDS011;7275;50.328;8.720;2023-07-24T04:53:54;3.30;;;2.37;;
14381;SDS011;7275;50.328;8.720;2023-07-24T04:56:22;3.40;;;2.50;;
14381;SDS011;7275;50.328;8.720;2023-07-24T04:58:49;5.43;;;3.07;;
14381;SDS011;7275;50.328;8.720;2023-07-24T05:01:17;2.83;;;2.53;;
14381;SDS011;7275;50.328;8.720;2023-07-24T05:03:44;2.90;;;2.50;;
14381;SDS011;7275;50.328;8.720;2023-07-24T05:06:12;5.93;;;2.43;;
14381;SDS011;7275;50.328;8.720;2023-07-24T05:08:39;4.70;;;2.70;;
14381;SDS011;7275;50.328;8.720;2023-07-24T05:11:08;4.07;;;2.50;;
14381;SDS011;7275;50.328;8.720;2023-07-24T05:13:35;3.77;;;2.90;;
14381;SDS011;7275;50.328;8.720;2023-07-24T05:16:03;4.00;;;2.73;;
14381;SDS011;7275;50.328;8.720;2023-07-24T05:18:31;6.40;;;3.00;;
14381;SDS011;7275;50.328;8.720;2023-07-24T05:20:58;3.30;;;2.90;;
14381;SDS011;7275;50.328;8.720;2023-07-24T05:23:26;5.90;;;2.90;;
14381;SDS011;7275;50.328;8.720;2023-07-24T05:25:57;6.93;;;3.20;;
14381;SDS011;7275;50.328;8.720;2023-07-24T05:28:27;3.57;;;2.70;;
14381;SDS011;7275;50.328;8.720;2023-07-24T05:30:55;3.93;;;3.00;;
14381;SDS011;7275;50.328;8.720;2023-07-24T05:33:22;3.40;;;3.00;;
14381;SDS011;7275;50.328;8.720;2023-07-24T05:35:50;3.57;;;3.00;;
14381;SDS011;7275;50.328;8.720;2023-07-24T05:38:17;4.40;;;3.30;;
14381;SDS011;7275;50.328;8.720;2023-07-24T05:40:45;5.23;;;2.97;;
14381;SDS011;7275;50.328;8.720;2023-07-24T05:43:12;5.27;;;3.30;;
14381;SDS011;7275;50.328;8.720;2023-07-24T05:45:41;4.30;;;3.33;;
14381;SDS011;7275;50.328;8.720;2023-07-24T05:48:09;5.33;;;3.47;;
14381;SDS011;7275;50.328;8.720;2023-07-24T05:50:36;5.27;;;3.27;;
14381;SDS011;7275;50.328;8.720;2023-07-24T05:53:04;4.37;;;3.50;;
14381;SDS011;7275;50.328;8.720;2023-07-24T05:55:31;4.00;;;3.33;;
14381;SDS011;7275;50.328;8.720;2023-07-24T05:57:59;6.00;;;3.33;;
14381;SDS011;7275;50.328;8.720;2023-07-24T06:00:26;4.87;;;3.10;;
14381;SDS011;7275;50.328;8.720;2023-07-24T06:02:56;4.07;;;3.27;;
14381;SDS011;7275;50.328;8.720;2023-07-24T06:05:23;3.20;;;2.90;;
14381;SDS011;7275;50.328;8.720;2023-07-24T06:07:51;4.37;;;3.13;;
14381;SDS011;7275;50.328;8.720;2023-07-24T06:10:18;4.77;;;3.17;;
14381;SDS011;7275;50.328;8.720;2023-07-24T06:12:46;5.70;;;3.00;;
14381;SDS011;7275;50.328;8.720;2023-07-24T06:15:14;3.37;;;3.07;;
14381;SDS011;7275;50.328;8.720;2023-07-24T06:17:41;3.20;;;2.87;;
14381;SDS011;7275;50.328;8.720;2023-07-24T06:20:11;3.37;;;2.73;;
14381;SDS011;7275;50.328;8.720;2023-07-24T06:22:38;3.00;;;2.43;;
14381;SDS011;7275;50.328;8.720;2023-07-24T06:25:06;3.10;;;2.57;;
14381;SDS011;7275;50.328;8.720;2023-07-24T06:27:34;4.17;;;2.60;;
14381;SDS011;7275;50.328;8.720;2023-07-24T06:30:01;3.40;;;2.50;;
14381;SDS011;7275;50.328;8.720;2023-07-24T06:32:41;3.80;;;2.50;;
14381;SDS011;7275;50.328;8.720;2023-07-24T06:35:09;3.50;;;2.47;;
14381;SDS011;7275;50.328;8.720;2023-07-24T06:37:37;2.60;;;2.40;;
14381;SDS011;7275;50.328;8.720;2023-07-24T06:40:06;3.57;;;2.60;;
14381;SDS011;7275;50.328;8.720;2023-07-24T06:42:34;3.50;;;2.50;;
14381;SDS011;7275;50.328;8.720;2023-07-24T06:45:02;4.90;;;2.40;;
14381;SDS011;7275;50.328;8.720;2023-07-24T06:47:33;3.63;;;3.10;;
14381;SDS011;7275;50.328;8.720;2023-07-24T06:50:01;2.80;;;2.60;;
14381;SDS011;7275;50.328;8.720;2023-07-24T06:52:30;6.57;;;3.00;;
14381;SDS011;7275;50.328;8.720;2023-07-24T06:54:58;15.40;;;3.20;;
14381;SDS011;7275;50.328;8.720;2023-07-24T06:57:25;4.20;;;2.72;;
14381;SDS011;7275;50.328;8.720;2023-07-24T06:59:53;4.53;;;3.20;;
14381;SDS011;7275;50.328;8.720;2023-07-24T07:02:21;3.30;;;2.97;;
14381;SDS011;7275;50.328;8.720;2023-07-24T07:04:48;3.85;;;3.25;;
14381;SDS011;7275;50.328;8.720;2023-07-24T07:07:16;4.00;;;2.60;;
14381;SDS011;7275;50.328;8.720;2023-07-24T07:09:45;3.53;;;2.83;;
14381;SDS011;7275;50.328;8.720;2023-07-24T07:12:12;4.30;;;3.00;;
14381;SDS011;7275;50.328;8.720;2023-07-24T07:14:40;3.53;;;2.80;;
14381;SDS011;7275;50.328;8.720;2023-07-24T07:17:07;4.13;;;2.67;;
14381;SDS011;7275;50.328;8.720;2023-07-24T07:19:35;9.48;;;3.45;;
14381;SDS011;7275;50.328;8.720;2023-07-24T07:22:03;3.90;;;3.50;;
14381;SDS011;7275;50.328;8.720;2023-07-24T07:24:31;4.03;;;3.15;;
14381;SDS011;7275;50.328;8.720;2023-07-24T07:27:00;6.80;;;3.58;;
14381;SDS011;7275;50.328;8.720;2023-07-24T07:29:28;9.93;;;3.30;;
14381;SDS011;7275;50.328;8.720;2023-07-24T07:31:57;9.98;;;4.00;;
14381;SDS011;7275;50.328;8.720;2023-07-24T07:34:25;5.13;;;3.38;;
14381;SDS011;7275;50.328;8.720;2023-07-24T07:36:52;7.20;;;3.70;;
14381;SDS011;7275;50.328;8.720;2023-07-24T07:39:20;4.05;;;3.00;;
14381;SDS011;7275;50.328;8.720;2023-07-24T07:41:47;3.50;;;2.90;;
14381;SDS011;7275;50.328;8.720;2023-07-24T07:44:19;6.05;;;3.33;;
14381;SDS011;7275;50.328;8.720;2023-07-24T07:46:46;3.33;;;3.00;;
14381;SDS011;7275;50.328;8.720;2023-07-24T07:49:14;3.63;;;3.10;;
14381;SDS011;7275;50.328;8.720;2023-07-24T07:51:41;3.78;;;3.03;;
14381;SDS011;7275;50.328;8.720;2023-07-24T07:54:09;4.60;;;3.00;;
14381;SDS011;7275;50.328;8.720;2023-07-24T07:56:36;5.90;;;3.13;;
14381;SDS011;7275;50.328;8.720;2023-07-24T07:59:04;3.53;;;2.80;;
14381;SDS011;7275;50.328;8.720;2023-07-24T08:01:33;5.00;;;2.92;;
14381;SDS011;7275;50.328;8.720;2023-07-24T08:04:00;3.50;;;3.03;;
14381;SDS011;7275;50.328;8.720;2023-07-24T08:06:28;5.00;;;2.72;;
14381;SDS011;7275;50.328;8.720;2023-07-24T08:08:56;3.10;;;2.80;;
14381;SDS011;7275;50.328;8.720;2023-07-24T08:11:24;3.35;;;3.05;;
14381;SDS011;7275;50.328;8.720;2023-07-24T08:13:51;3.50;;;2.80;;
14381;SDS011;7275;50.328;8.720;2023-07-24T08:16:19;4.70;;;2.90;;
14381;SDS011;7275;50.328;8.720;2023-07-24T08:18:48;4.45;;;2.70;;
14381;SDS011;7275;50.328;8.720;2023-07-24T08:21:15;3.13;;;2.60;;
14381;SDS011;7275;50.328;8.720;2023-07-24T08:23:43;4.00;;;2.80;;
14381;SDS011;7275;50.328;8.720;2023-07-24T08:26:10;3.90;;;2.80;;
14381;SDS011;7275;50.328;8.720;2023-07-24T08:28:38;3.97;;;2.70;;
14381;SDS011;7275;50.328;8.720;2023-07-24T08:31:08;4.70;;;2.90;;
14381;SDS011;7275;50.328;8.720;2023-07-24T08:33:36;3.15;;;2.83;;
14381;SDS011;7275;50.328;8.720;2023-07-24T08:36:05;4.45;;;2.92;;
14381;SDS011;7275;50.328;8.720;2023-07-24T08:38:34;4.45;;;3.00;;
14381;SDS011;7275;50.328;8.720;2023-07-24T08:41:03;5.95;;;2.53;;
14381;SDS011;7275;50.328;8.720;2023-07-24T08:43:32;5.45;;;2.90;;
14381;SDS011;7275;50.328;8.720;2023-07-24T08:46:00;6.47;;;3.00;;
14381;SDS011;7275;50.328;8.720;2023-07-24T08:48:30;4.53;;;2.75;;
14381;SDS011;7275;50.328;8.720;2023-07-24T08:51:01;5.20;;;2.67;;
14381;SDS011;7275;50.328;8.720;2023-07-24T08:53:31;3.97;;;2.92;;
14381;SDS011;7275;50.328;8.720;2023-07-24T08:56:02;3.33;;;2.80;;
14381;SDS011;7275;50.328;8.720;2023-07-24T08:58:30;3.53;;;3.00;;
14381;SDS011;7275;50.328;8.720;2023-07-24T09:00:57;6.60;;;3.10;;
14381;SDS011;7275;50.328;8.720;2023-07-24T09:03:26;5.28;;;2.90;;
14381;SDS011;7275;50.328;8.720;2023-07-24T09:05:54;3.67;;;3.00;;
14381;SDS011;7275;50.328;8.720;2023-07-24T09:08:28;3.97;;;3.10;;
14381;SDS011;7275;50.328;8.720;2023-07-24T09:10:58;4.47;;;3.40;;
14381;SDS011;7275;50.328;8.720;2023-07-24T09:13:26;3.65;;;2.80;;
14381;SDS011;7275;50.328;8.720;2023-07-24T09:15:54;3.25;;;2.78;;
14381;SDS011;7275;50.328;8.720;2023-07-24T09:18:22;3.80;;;2.72;;
14381;SDS011;7275;50.328;8.720;2023-07-24T09:20:49;4.72;;;2.80;;
14381;SDS011;7275;50.328;8.720;2023-07-24T09:23:25;4.35;;;2.70;;
14381;SDS011;7275;50.328;8.720;2023-07-24T09:25:53;4.65;;;2.92;;
14381;SDS011;7275;50.328;8.720;2023-07-24T09:28:22;3.80;;;3.10;;
14381;SDS011;7275;50.328;8.720;2023-07-24T09:30:54;3.10;;;2.80;;
14381;SDS011;7275;50.328;8.720;2023-07-24T09:33:23;4.72;;;2.70;;
14381;SDS011;7275;50.328;8.720;2023-07-24T09:35:57;3.45;;;3.03;;
14381;SDS011;7275;50.328;8.720;2023-07-24T09:38:25;5.10;;;2.70;;
14381;SDS011;7275;50.328;8.720;2023-07-24T09:40:53;3.10;;;2.78;;
14381;SDS011;7275;50.328;8.720;2023-07-24T09:43:23;3.05;;;2.65;;
14381;SDS011;7275;50.328;8.720;2023-07-24T09:46:05;6.63;;;2.90;;
14381;SDS011;7275;50.328;8.720;2023-07-24T09:48:34;3.08;;;2.63;;
14381;SDS011;7275;50.328;8.720;2023-07-24T09:51:05;2.88;;;2.40;;
14381;SDS011;7275;50.328;8.720;2023-07-24T09:53:39;2.92;;;2.40;;
14381;SDS011;7275;50.328;8.720;2023-07-24T09:56:10;4.43;;;2.75;;
14381;SDS011;7275;50.328;8.720;2023-07-24T09:58:39;3.53;;;2.83;;
14381;SDS011;7275;50.328;8.720;2023-07-24T10:01:08;3.22;;;2.80;;
14381;SDS011;7275;50.328;8.720;2023-07-24T10:03:38;3.97;;;2.80;;
14381;SDS011;7275;50.328;8.720;2023-07-24T10:06:09;4.25;;;2.70;;
14381;SDS011;7275;50.328;8.720;2023-07-24T10:08:38;3.30;;;2.75;;
14381;SDS011;7275;50.328;8.720;2023-07-24T10:11:06;4.18;;;2.70;;
14381;SDS011;7275;50.328;8.720;2023-07-24T10:13:34;3.60;;;2.53;;
14381;SDS011;7275;50.328;8.720;2023-07-24T10:16:05;3.60;;;2.80;;
14381;SDS011;7275;50.328;8.720;2023-07-24T10:18:34;4.13;;;2.75;;
14381;SDS011;7275;50.328;8.720;2023-07-24T10:21:03;3.65;;;2.85;;
14381;SDS011;7275;50.328;8.720;2023-07-24T10:23:33;4.22;;;2.85;;
14381;SDS011;7275;50.328;8.720;2023-07-24T10:26:02;3.33;;;2.80;;
14381;SDS011;7275;50.328;8.720;2023-07-24T10:28:30;9.63;;;3.00;;
14381;SDS011;7275;50.328;8.720;2023-07-24T10:30:59;3.72;;;2.70;;
14381;SDS011;7275;50.328;8.720;2023-07-24T10:33:30;5.45;;;2.90;;
14381;SDS011;7275;50.328;8.720;2023-07-24T10:36:05;3.10;;;2.80;;
14381;SDS011;7275;50.328;8.720;2023-07-24T10:38:36;3.55;;;3.00;;
14381;SDS011;7275;50.328;8.720;2023-07-24T10:41:06;2.90;;;2.70;;
14381;SDS011;7275;50.328;8.720;2023-07-24T10:43:42;4.55;;;2.90;;
14381;SDS011;7275;50.328;8.720;2023-07-24T10:46:14;6.55;;;3.08;;
14381;SDS011;7275;50.328;8.720;2023-07-24T10:48:45;3.38;;;2.90;;
14381;SDS011;7275;50.328;8.720;2023-07-24T10:51:14;3.83;;;2.70;;
14381;SDS011;7275;50.328;8.720;2023-07-24T10:53:43;5.38;;;3.00;;
14381;SDS011;7275;50.328;8.720;2023-07-24T10:56:12;4.07;;;3.20;;
14381;SDS011;7275;50.328;8.720;2023-07-24T10:58:40;4.65;;;3.25;;
14381;SDS011;7275;50.328;8.720;2023-07-24T11:01:07;3.90;;;3.00;;
14381;SDS011;7275;50.328;8.720;2023-07-24T11:03:37;5.40;;;3.50;;
14381;SDS011;7275;50.328;8.720;2023-07-24T11:06:13;5.00;;;3.40;;
14381;SDS011;7275;50.328;8.720;2023-07-24T11:08:42;4.18;;;3.30;;
14381;SDS011;7275;50.328;8.720;2023-07-24T11:11:09;4.68;;;3.45;;
14381;SDS011;7275;50.328;8.720;2023-07-24T11:13:38;5.05;;;3.28;;
14381;SDS011;7275;50.328;8.720;2023-07-24T11:16:06;5.68;;;3.70;;
14381;SDS011;7275;50.328;8.720;2023-07-24T11:18:43;8.38;;;3.60;;
14381;SDS011;7275;50.328;8.720;2023-07-24T11:21:21;6.35;;;3.40;;
14381;SDS011;7275;50.328;8.720;2023-07-24T11:23:50;3.70;;;3.28;;
14381;SDS011;7275;50.328;8.720;2023-07-24T11:26:19;4.05;;;3.10;;
14381;SDS011;7275;50.328;8.720;2023-07-24T11:28:48;4.05;;;3.38;;
14381;SDS011;7275;50.328;8.720;2023-07-24T11:31:15;4.70;;;3.47;;
14381;SDS011;7275;50.328;8.720;2023-07-24T11:33:46;3.50;;;3.20;;
14381;SDS011;7275;50.328;8.720;2023-07-24T11:36:14;11.88;;;3.78;;
14381;SDS011;7275;50.328;8.720;2023-07-24T11:38:45;5.85;;;3.45;;
14381;SDS011;7275;50.328;8.720;2023-07-24T11:41:13;5.70;;;4.00;;
14381;SDS011;7275;50.328;8.720;2023-07-24T11:43:46;6.90;;;4.45;;
14381;SDS011;7275;50.328;8.720;2023-07-24T11:46:22;5.68;;;3.60;;
14381;SDS011;7275;50.328;8.720;2023-07-24T11:48:51;4.25;;;3.72;;
14381;SDS011;7275;50.328;8.720;2023-07-24T11:51:20;5.53;;;3.75;;
14381;SDS011;7275;50.328;8.720;2023-07-24T11:53:48;4.30;;;3.70;;
14381;SDS011;7275;50.328;8.720;2023-07-24T11:56:17;4.82;;;3.78;;
14381;SDS011;7275;50.328;8.720;2023-07-24T11:58:46;6.65;;;3.70;;
14381;SDS011;7275;50.328;8.720;2023-07-24T12:01:13;6.57;;;4.00;;
14381;SDS011;7275;50.328;8.720;2023-07-24T12:03:42;5.93;;;3.60;;
14381;SDS011;7275;50.328;8.720;2023-07-24T12:06:13;5.90;;;3.55;;
14381;SDS011;7275;50.328;8.720;2023-07-24T12:08:41;4.40;;;3.90;;
14381;SDS011;7275;50.328;8.720;2023-07-24T12:11:16;3.97;;;3.45;;
14381;SDS011;7275;50.328;8.720;2023-07-24T12:13:44;5.75;;;3.40;;
14381;SDS011;7275;50.328;8.720;2023-07-24T12:16:12;4.72;;;3.50;;
14381;SDS011;7275;50.328;8.720;2023-07-24T12:18:40;4.88;;;3.38;;
14381;SDS011;7275;50.328;8.720;2023-07-24T12:21:07;5.70;;;3.63;;
14381;SDS011;7275;50.328;8.720;2023-07-24T12:23:35;5.80;;;3.50;;
14381;SDS011;7275;50.328;8.720;2023-07-24T12:26:02;4.55;;;3.50;;
14381;SDS011;7275;50.328;8.720;2023-07-24T12:28:31;5.68;;;3.70;;
14381;SDS011;7275;50.328;8.720;2023-07-24T12:30:59;3.72;;;3.33;;
14381;SDS011;7275;50.328;8.720;2023-07-24T12:33:26;5.32;;;3.50;;
14381;SDS011;7275;50.328;8.720;2023-07-24T12:35:54;3.47;;;3.17;;
14381;SDS011;7275;50.328;8.720;2023-07-24T12:38:22;4.63;;;3.45;;
14381;SDS011;7275;50.328;8.720;2023-07-24T12:40:49;4.93;;;3.08;;
14381;SDS011;7275;50.328;8.720;2023-07-24T12:43:17;4.18;;;3.22;;
14381;SDS011;7275;50.328;8.720;2023-07-24T12:45:46;4.10;;;3.25;;
14381;SDS011;7275;50.328;8.720;2023-07-24T12:48:13;7.15;;;3.70;;
14381;SDS011;7275;50.328;8.720;2023-07-24T12:50:41;3.53;;;3.22;;
14381;SDS011;7275;50.328;8.720;2023-07-24T12:53:09;5.68;;;3.40;;
14381;SDS011;7275;50.328;8.720;2023-07-24T12:55:41;6.70;;;3.28;;
14381;SDS011;7275;50.328;8.720;2023-07-24T12:58:09;5.95;;;3.30;;
14381;SDS011;7275;50.328;8.720;2023-07-24T13:00:36;3.40;;;3.10;;
14381;SDS011;7275;50.328;8.720;2023-07-24T13:03:05;5.43;;;3.42;;
14381;SDS011;7275;50.328;8.720;2023-07-24T13:05:33;3.40;;;2.95;;
14381;SDS011;7275;50.328;8.720;2023-07-24T13:08:00;3.90;;;3.47;;
14381;SDS011;7275;50.328;8.720;2023-07-24T13:10:28;4.00;;;3.00;;
14381;SDS011;7275;50.328;8.720;2023-07-24T13:12:56;4.03;;;3.35;;
14381;SDS011;7275;50.328;8.720;2023-07-24T13:15:23;4.88;;;3.10;;
14381;SDS011;7275;50.328;8.720;2023-07-24T13:17:51;5.88;;;3.20;;
14381;SDS011;7275;50.328;8.720;2023-07-24T13:20:21;5.13;;;3.08;;
14381;SDS011;7275;50.328;8.720;2023-07-24T13:22:48;3.95;;;3.20;;
14381;SDS011;7275;50.328;8.720;2023-07-24T13:25:16;5.25;;;3.90;;
14381;SDS011;7275;50.328;8.720;2023-07-24T13:27:43;4.18;;;3.78;;
14381;SDS011;7275;50.328;8.720;2023-07-24T13:30:11;6.45;;;3.50;;
14381;SDS011;7275;50.328;8.720;2023-07-24T13:32:39;5.03;;;3.22;;
14381;SDS011;7275;50.328;8.720;2023-07-24T13:35:06;4.28;;;3.50;;
14381;SDS011;7275;50.328;8.720;2023-07-24T13:37:36;8.18;;;3.60;;
14381;SDS011;7275;50.328;8.720;2023-07-24T13:40:04;6.47;;;3.20;;
14381;SDS011;7275;50.328;8.720;2023-07-24T13:42:32;4.82;;;3.10;;
14381;SDS011;7275;50.328;8.720;2023-07-24T13:45:00;4.40;;;3.30;;
14381;SDS011;7275;50.328;8.720;2023-07-24T13:47:27;3.90;;;3.10;;
14381;SDS011;7275;50.328;8.720;2023-07-24T13:49:55;3.17;;;2.88;;
14381;SDS011;7275;50.328;8.720;2023-07-24T13:52:22;3.53;;;2.83;;
14381;SDS011;7275;50.328;8.720;2023-07-24T13:54:51;3.30;;;3.00;;
14381;SDS011;7275;50.328;8.720;2023-07-24T13:57:19;3.28;;;3.00;;
14381;SDS011;7275;50.328;8.720;2023-07-24T13:59:47;3.90;;;2.80;;
14381;SDS011;7275;50.328;8.720;2023-07-24T14:02:14;4.00;;;2.50;;
14381;SDS011;7275;50.328;8.720;2023-07-24T14:04:42;5.85;;;3.13;;
14381;SDS011;7275;50.328;8.720;2023-07-24T14:07:10;3.35;;;2.95;;
14381;SDS011;7275;50.328;8.720;2023-07-24T14:09:39;3.90;;;2.72;;
14381;SDS011;7275;50.328;8.720;2023-07-24T14:12:10;12.18;;;3.70;;
14381;SDS011;7275;50.328;8.720;2023-07-24T14:14:37;8.52;;;3.20;;
14381;SDS011;7275;50.328;8.720;2023-07-24T14:17:05;7.78;;;2.63;;
14381;SDS011;7275;50.328;8.720;2023-07-24T14:19:32;5.18;;;2.70;;
14381;SDS011;7275;50.328;8.720;2023-07-24T14:22:00;2.42;;;1.58;;
14381;SDS011;7275;50.328;8.720;2023-07-24T14:24:28;2.38;;;1.50;;
14381;SDS011;7275;50.328;8.720;2023-07-24T14:26:55;3.10;;;1.75;;
14381;SDS011;7275;50.328;8.720;2023-07-24T14:29:24;3.03;;;1.67;;
14381;SDS011;7275;50.328;8.720;2023-07-24T14:31:52;3.70;;;1.92;;
14381;SDS011;7275;50.328;8.720;2023-07-24T14:34:19;2.58;;;1.73;;
14381;SDS011;7275;50.328;8.720;2023-07-24T14:36:47;2.53;;;1.83;;
14381;SDS011;7275;50.328;8.720;2023-07-24T14:39:14;2.40;;;1.70;;
14381;SDS011;7275;50.328;8.720;2023-07-24T14:41:42;2.97;;;1.90;;
14381;SDS011;7275;50.328;8.720;2023-07-24T14:44:09;2.40;;;1.90;;
14381;SDS011;7275;50.328;8.720;2023-07-24T14:46:38;3.55;;;1.98;;
14381;SDS011;7275;50.328;8.720;2023-07-24T14:49:06;3.92;;;2.05;;
14381;SDS011;7275;50.328;8.720;2023-07-24T14:51:33;2.92;;;1.80;;
14381;SDS011;7275;50.328;8.720;2023-07-24T14:54:01;4.28;;;2.17;;
14381;SDS011;7275;50.328;8.720;2023-07-24T14:56:28;2.30;;;1.85;;
14381;SDS011;7275;50.328;8.720;2023-07-24T14:59:16;3.67;;;2.13;;
14381;SDS011;7275;50.328;8.720;2023-07-24T15:01:45;2.70;;;2.13;;
14381;SDS011;7275;50.328;8.720;2023-07-24T15:04:12;2.45;;;2.10;;
14381;SDS011;7275;50.328;8.720;2023-07-24T15:06:40;2.10;;;1.90;;
14381;SDS011;7275;50.328;8.720;2023-07-24T15:09:07;1.95;;;1.80;;